Time;durP1;ratioP1;P1;durP2;ratioP2;P2;SDS_P1;SDS_P2;PMS_P1;PMS_P2;Temp;Humidity;BMP_temperature;BMP_pressure;BME280_temperature;BME280_humidity;BME280_pressure;Samples;Min_cycle;Max_cycle;Signal;HPM_P1;HPM_P2
2021/09/19 00:00:20;;;;;;;15.27;11.87;;;13.60;99.90;;;;;;5053799;28;20881;-59
2021/09/19 00:02:47;;;;;;;18.27;13.50;;;13.60;99.90;;;;;;5053323;28;20476;-59
2021/09/19 00:05:16;;;;;;;16.60;11.77;;;13.60;99.90;;;;;;5053057;28;20456;-59
2021/09/19 00:07:43;;;;;;;16.07;11.77;;;13.70;99.90;;;;;;5053485;28;20517;-59
2021/09/19 00:10:13;;;;;;;15.83;12.10;;;13.70;99.90;;;;;;5052753;28;21047;-58
2021/09/19 00:12:41;;;;;;;14.60;11.90;;;13.70;99.90;;;;;;5053134;28;20472;-58
2021/09/19 00:15:10;;;;;;;16.10;12.73;;;13.60;99.90;;;;;;5052600;28;21019;-59
2021/09/19 00:17:38;;;;;;;15.70;10.70;;;13.60;99.90;;;;;;5053233;28;20953;-58
2021/09/19 00:20:07;;;;;;;18.67;11.73;;;13.70;99.90;;;;;;5053358;28;20449;-58
2021/09/19 00:22:34;;;;;;;14.10;11.87;;;13.60;99.90;;;;;;5052843;28;20479;-59
2021/09/19 00:25:02;;;;;;;15.50;12.30;;;13.70;99.90;;;;;;5053142;28;20535;-58
2021/09/19 00:27:30;;;;;;;14.97;11.93;;;13.70;99.90;;;;;;5033263;28;20502;-59
2021/09/19 00:29:57;;;;;;;13.37;11.10;;;13.70;99.90;;;;;;5036019;28;20864;-59
2021/09/19 00:32:25;;;;;;;14.27;12.10;;;13.70;99.90;;;;;;5052461;28;20452;-59
2021/09/19 00:34:52;;;;;;;14.97;11.27;;;13.80;99.90;;;;;;5053348;28;20483;-59
2021/09/19 00:37:19;;;;;;;15.80;11.40;;;13.70;99.90;;;;;;5052508;28;20456;-59
2021/09/19 00:39:46;;;;;;;14.17;11.33;;;13.70;99.90;;;;;;5052647;28;20941;-58
2021/09/19 00:42:12;;;;;;;16.03;11.40;;;13.70;99.90;;;;;;5052550;28;20862;-58
2021/09/19 00:44:41;;;;;;;14.30;10.73;;;13.70;99.90;;;;;;5074803;22;20881;-52
2021/09/19 00:47:08;;;;;;;14.93;11.97;;;13.70;99.90;;;;;;5052157;28;20452;-52
2021/09/19 00:49:35;;;;;;;14.60;10.90;;;13.70;99.90;;;;;;5052684;28;20463;-53
2021/09/19 00:52:02;;;;;;;15.83;12.43;;;13.70;99.90;;;;;;5052608;28;20483;-53
2021/09/19 00:54:29;;;;;;;19.13;11.80;;;13.70;99.90;;;;;;5052546;28;20475;-53
2021/09/19 00:56:57;;;;;;;14.47;11.87;;;13.70;99.90;;;;;;5038029;28;20507;-52
2021/09/19 00:59:24;;;;;;;16.67;11.80;;;13.70;99.90;;;;;;5032518;28;20457;-52
2021/09/19 01:01:53;;;;;;;14.67;11.97;;;13.70;99.90;;;;;;5046996;28;20809;-52
2021/09/19 01:04:21;;;;;;;14.70;11.57;;;13.70;99.90;;;;;;5044438;28;20821;-53
2021/09/19 01:06:48;;;;;;;15.27;11.53;;;13.60;99.90;;;;;;5045416;28;21024;-53
2021/09/19 01:09:16;;;;;;;17.30;11.97;;;13.60;99.90;;;;;;5050475;28;20444;-52
2021/09/19 01:11:43;;;;;;;16.10;11.93;;;13.60;99.90;;;;;;5032247;28;20558;-52
2021/09/19 01:14:15;;;;;;;14.33;11.43;;;13.60;99.90;;;;;;5051792;28;20989;-53
2021/09/19 01:16:43;;;;;;;16.47;11.80;;;13.60;99.90;;;;;;5051796;28;20517;-52
2021/09/19 01:19:16;;;;;;;14.57;11.83;;;13.60;99.90;;;;;;5042161;28;20441;-52
2021/09/19 01:21:43;;;;;;;15.63;11.23;;;13.60;99.90;;;;;;5051058;28;20479;-52
2021/09/19 01:24:12;;;;;;;15.50;10.00;;;13.60;99.90;;;;;;5050623;28;20476;-53
2021/09/19 01:26:39;;;;;;;14.60;11.00;;;13.60;99.90;;;;;;5052153;28;20452;-52
2021/09/19 01:29:06;;;;;;;14.27;11.20;;;13.60;99.90;;;;;;5049524;28;20510;-52
2021/09/19 01:31:33;;;;;;;18.93;12.67;;;13.50;99.90;;;;;;5051771;28;20491;-52
2021/09/19 01:34:00;;;;;;;14.77;11.63;;;13.50;99.90;;;;;;5046920;28;20525;-53
2021/09/19 01:36:27;;;;;;;15.27;11.20;;;13.50;99.90;;;;;;5051992;28;20452;-52
2021/09/19 01:38:54;;;;;;;16.00;11.83;;;13.50;99.90;;;;;;5045133;28;20445;-53
2021/09/19 01:41:24;;;;;;;14.80;11.23;;;13.50;99.90;;;;;;5031610;28;20938;-53
2021/09/19 01:43:51;;;;;;;13.80;11.00;;;13.20;99.90;;;;;;5038930;28;20544;-52
2021/09/19 01:46:18;;;;;;;12.47;10.77;;;13.30;99.90;;;;;;5051929;28;20454;-52
2021/09/19 01:48:45;;;;;;;16.50;11.53;;;13.30;99.90;;;;;;5048785;28;20478;-52
2021/09/19 01:51:13;;;;;;;12.93;10.40;;;13.30;99.90;;;;;;5040458;28;20503;-52
2021/09/19 01:53:40;;;;;;;14.07;11.10;;;13.40;99.90;;;;;;5032824;28;20526;-52
2021/09/19 01:56:07;;;;;;;14.60;10.80;;;13.40;99.90;;;;;;5050618;28;20453;-52
2021/09/19 01:58:42;;;;;;;13.33;10.77;;;13.40;99.90;;;;;;5051040;28;20456;-53
2021/09/19 02:01:10;;;;;;;13.40;10.73;;;13.40;99.90;;;;;;5051512;28;20443;-52
2021/09/19 02:03:38;;;;;;;14.13;12.10;;;13.40;99.90;;;;;;5044529;28;20523;-53
2021/09/19 02:06:05;;;;;;;14.20;11.10;;;13.30;99.90;;;;;;5031338;28;20447;-52
2021/09/19 02:08:35;;;;;;;13.40;9.90;;;13.30;99.90;;;;;;5042971;28;20509;-53
2021/09/19 02:11:03;;;;;;;13.30;10.47;;;13.20;99.90;;;;;;5051173;28;21095;-52
2021/09/19 02:13:30;;;;;;;11.70;10.10;;;13.20;99.90;;;;;;5041375;28;20519;-52
2021/09/19 02:15:59;;;;;;;15.70;9.70;;;13.30;99.90;;;;;;5040508;28;20453;-52
2021/09/19 02:18:26;;;;;;;13.77;10.47;;;13.30;99.90;;;;;;5031504;28;20534;-52
2021/09/19 02:20:53;;;;;;;13.43;9.57;;;13.10;99.90;;;;;;5043296;28;20877;-52
2021/09/19 02:23:20;;;;;;;16.23;10.80;;;13.10;99.90;;;;;;5047169;28;20935;-52
2021/09/19 02:25:48;;;;;;;14.33;10.30;;;13.10;99.90;;;;;;5033279;28;20597;-52
2021/09/19 02:28:15;;;;;;;13.57;10.30;;;13.10;99.90;;;;;;5042394;28;20448;-53
2021/09/19 02:30:42;;;;;;;13.23;10.50;;;13.20;99.90;;;;;;5031217;28;20448;-52
2021/09/19 02:33:11;;;;;;;14.43;10.80;;;13.20;99.90;;;;;;5039554;28;20601;-52
2021/09/19 02:35:38;;;;;;;14.97;10.43;;;13.20;99.90;;;;;;5051185;28;20447;-51
2021/09/19 02:38:05;;;;;;;11.63;9.43;;;13.10;99.90;;;;;;5038638;28;20457;-52
2021/09/19 02:40:32;;;;;;;14.20;11.73;;;13.10;99.90;;;;;;5031259;28;20800;-52
2021/09/19 02:42:59;;;;;;;15.67;10.80;;;12.90;99.90;;;;;;5036757;28;20505;-52
2021/09/19 02:45:26;;;;;;;13.97;11.03;;;12.90;99.90;;;;;;5043749;28;20468;-52
2021/09/19 02:47:53;;;;;;;15.07;11.10;;;12.90;99.90;;;;;;5031498;28;20448;-52
2021/09/19 02:50:23;;;;;;;12.60;9.60;;;12.90;99.90;;;;;;5037310;28;20478;-52
2021/09/19 02:52:51;;;;;;;11.93;9.87;;;12.90;99.90;;;;;;5039150;28;20492;-53
2021/09/19 02:55:20;;;;;;;13.30;9.67;;;12.80;99.90;;;;;;5048041;28;20467;-52
2021/09/19 02:57:48;;;;;;;14.20;10.80;;;12.90;99.90;;;;;;5041022;28;20444;-52
2021/09/19 03:00:20;;;;;;;12.97;10.40;;;12.90;99.90;;;;;;5030943;28;20503;-53
2021/09/19 03:02:48;;;;;;;14.43;10.80;;;12.90;99.90;;;;;;5034142;28;20497;-53
2021/09/19 03:05:16;;;;;;;15.27;11.10;;;12.90;99.90;;;;;;5034222;28;21075;-52
2021/09/19 03:07:44;;;;;;;12.37;9.63;;;12.80;99.90;;;;;;5044821;28;20451;-53
2021/09/19 03:10:13;;;;;;;12.93;11.07;;;12.90;99.90;;;;;;5051060;28;20447;-52
2021/09/19 03:12:40;;;;;;;14.80;10.97;;;12.80;99.90;;;;;;5049018;28;20907;-52
2021/09/19 03:15:08;;;;;;;13.60;10.50;;;12.80;99.90;;;;;;5037377;28;20526;-53
2021/09/19 03:17:35;;;;;;;14.03;10.20;;;12.80;99.90;;;;;;5041446;28;20463;-52
2021/09/19 03:20:03;;;;;;;13.03;10.63;;;12.80;99.90;;;;;;5054571;28;20447;-52
2021/09/19 03:22:30;;;;;;;15.63;10.30;;;12.80;99.90;;;;;;5052615;28;20451;-53
2021/09/19 03:24:58;;;;;;;12.13;10.13;;;12.80;99.90;;;;;;5047808;28;20887;-52
2021/09/19 03:27:25;;;;;;;12.20;10.17;;;12.80;99.90;;;;;;5054260;28;20814;-52
2021/09/19 03:29:52;;;;;;;17.97;10.30;;;12.60;99.90;;;;;;5051307;28;20509;-53
2021/09/19 03:32:19;;;;;;;13.10;10.53;;;12.60;99.90;;;;;;5034241;28;20488;-52
2021/09/19 03:34:46;;;;;;;13.03;10.70;;;12.60;99.90;;;;;;5037636;28;20468;-52
2021/09/19 03:37:13;;;;;;;12.53;9.60;;;12.70;99.90;;;;;;5041852;28;20452;-53
2021/09/19 03:39:40;;;;;;;14.40;10.20;;;12.70;99.90;;;;;;5043532;28;20869;-52
2021/09/19 03:42:08;;;;;;;14.47;10.17;;;12.70;99.90;;;;;;5045933;28;20456;-52
2021/09/19 03:44:35;;;;;;;13.23;10.20;;;12.70;99.90;;;;;;5044259;28;20475;-52
2021/09/19 03:47:03;;;;;;;12.13;8.87;;;12.70;99.90;;;;;;5039683;28;20451;-52
2021/09/19 03:49:31;;;;;;;13.13;10.00;;;12.70;99.90;;;;;;5052272;28;20448;-52
2021/09/19 03:51:58;;;;;;;11.90;9.17;;;12.70;99.90;;;;;;5038400;28;20480;-53
2021/09/19 03:54:25;;;;;;;10.00;8.93;;;12.70;99.90;;;;;;5041721;28;20488;-53
2021/09/19 03:56:52;;;;;;;11.00;9.17;;;12.60;99.90;;;;;;5032997;28;21016;-54
2021/09/19 03:59:20;;;;;;;11.40;9.00;;;12.60;99.90;;;;;;5032975;28;20869;-52
2021/09/19 04:01:47;;;;;;;11.10;9.13;;;12.50;99.90;;;;;;5038589;28;20451;-53
2021/09/19 04:07:37;;;;;;;9.87;7.90;;;12.70;99.90;;;;;;5033104;28;20416;-53
2021/09/19 04:10:06;;;;;;;11.33;8.73;;;12.60;99.90;;;;;;5038335;28;20448;-54
2021/09/19 04:12:34;;;;;;;9.93;7.77;;;12.60;99.90;;;;;;5047909;28;20483;-52
2021/09/19 04:15:02;;;;;;;10.23;8.07;;;12.60;99.90;;;;;;5043554;28;20468;-53
2021/09/19 04:17:29;;;;;;;8.90;7.50;;;12.60;99.90;;;;;;5043001;28;20498;-53
2021/09/19 04:19:57;;;;;;;10.80;7.73;;;12.60;99.90;;;;;;5046231;28;20818;-54
2021/09/19 04:22:25;;;;;;;10.90;8.53;;;12.70;99.90;;;;;;5047208;28;20443;-53
2021/09/19 04:24:52;;;;;;;11.40;9.10;;;12.70;99.90;;;;;;5051014;28;20989;-53
2021/09/19 04:27:19;;;;;;;10.70;8.37;;;12.50;99.90;;;;;;5050967;28;20505;-52
2021/09/19 04:29:46;;;;;;;11.00;8.10;;;12.40;99.90;;;;;;5039398;28;20518;-53
2021/09/19 04:32:14;;;;;;;11.20;8.20;;;12.50;99.90;;;;;;5031699;28;20480;-53
2021/09/19 04:34:42;;;;;;;11.10;8.87;;;12.50;99.90;;;;;;5032271;28;20469;-52
2021/09/19 04:37:13;;;;;;;11.07;8.93;;;12.50;99.90;;;;;;5045821;28;20864;-52
2021/09/19 04:39:40;;;;;;;11.67;9.80;;;12.50;99.90;;;;;;5051240;28;20439;-53
2021/09/19 04:42:09;;;;;;;9.93;8.00;;;12.50;99.90;;;;;;5038024;28;20826;-54
2021/09/19 04:44:36;;;;;;;9.50;8.47;;;12.40;99.90;;;;;;5034275;28;20537;-54
2021/09/19 04:47:03;;;;;;;12.50;9.00;;;12.30;99.90;;;;;;5033660;28;20449;-54
2021/09/19 04:49:32;;;;;;;13.10;9.10;;;12.30;99.90;;;;;;5048173;28;20489;-53
2021/09/19 04:51:59;;;;;;;11.60;8.97;;;12.30;99.90;;;;;;5031828;28;20472;-54
2021/09/19 04:54:26;;;;;;;10.97;8.87;;;12.10;99.90;;;;;;5032009;28;20499;-53
2021/09/19 04:56:54;;;;;;;11.17;8.83;;;12.00;99.90;;;;;;5031933;28;20448;-53
2021/09/19 04:59:21;;;;;;;10.90;8.53;;;11.90;99.90;;;;;;5047978;28;20440;-53
2021/09/19 05:01:48;;;;;;;11.33;9.07;;;11.80;99.90;;;;;;5047129;28;20503;-52
2021/09/19 05:04:15;;;;;;;10.00;8.83;;;11.80;99.90;;;;;;5047231;28;20521;-53
2021/09/19 05:06:43;;;;;;;10.80;9.00;;;11.80;99.90;;;;;;5032038;28;20437;-52
2021/09/19 05:09:10;;;;;;;10.90;9.13;;;11.90;99.90;;;;;;5035437;28;20505;-52
2021/09/19 05:11:37;;;;;;;11.90;9.40;;;12.10;99.90;;;;;;5031789;28;20484;-52
2021/09/19 05:14:04;;;;;;;12.37;10.07;;;12.20;99.90;;;;;;5031311;28;20978;-52
2021/09/19 05:16:31;;;;;;;10.30;8.17;;;12.30;99.90;;;;;;5048407;28;20444;-52
2021/09/19 05:18:59;;;;;;;11.80;8.87;;;12.20;99.90;;;;;;5050477;28;20444;-52
2021/09/19 05:21:26;;;;;;;10.33;8.10;;;12.10;99.90;;;;;;5031449;28;20474;-52
2021/09/19 05:23:54;;;;;;;12.23;7.60;;;12.20;99.90;;;;;;5031263;28;20469;-52
2021/09/19 05:26:21;;;;;;;10.27;8.13;;;12.30;99.90;;;;;;5049897;28;20443;-52
2021/09/19 05:28:48;;;;;;;12.23;7.53;;;12.30;99.90;;;;;;5050090;28;20448;-52
2021/09/19 05:31:15;;;;;;;10.07;7.47;;;12.40;99.90;;;;;;5031286;28;20441;-52
2021/09/19 05:33:42;;;;;;;8.57;7.03;;;12.50;99.90;;;;;;5031113;28;20994;-52
2021/09/19 05:36:09;;;;;;;8.17;6.63;;;12.60;99.90;;;;;;5046293;28;20517;-52
2021/09/19 05:38:36;;;;;;;8.00;6.67;;;12.70;99.90;;;;;;5049838;28;20505;-51
2021/09/19 05:41:05;;;;;;;8.80;6.80;;;12.80;99.90;;;;;;5034122;28;20465;-52
2021/09/19 05:43:32;;;;;;;9.17;6.90;;;12.90;99.90;;;;;;5039363;28;20472;-53
2021/09/19 05:45:59;;;;;;;8.17;6.90;;;13.10;99.90;;;;;;5034648;28;20443;-53
2021/09/19 05:48:27;;;;;;;7.13;5.90;;;13.20;99.90;;;;;;5033275;28;20452;-52
2021/09/19 05:50:54;;;;;;;8.90;7.20;;;13.30;99.90;;;;;;5033351;28;20464;-52
2021/09/19 05:53:21;;;;;;;7.30;6.07;;;13.30;99.90;;;;;;5036212;28;20491;-53
2021/09/19 05:55:48;;;;;;;8.83;6.70;;;13.40;99.90;;;;;;5031415;28;20514;-52
2021/09/19 05:58:17;;;;;;;9.70;7.47;;;13.40;99.90;;;;;;5033081;28;20448;-52
2021/09/19 06:00:43;;;;;;;7.77;6.97;;;13.40;99.90;;;;;;5029441;28;20523;-53
2021/09/19 06:03:10;;;;;;;10.17;7.37;;;13.70;99.90;;;;;;5030055;28;20499;-52
2021/09/19 06:05:37;;;;;;;9.00;7.03;;;13.80;99.90;;;;;;5039219;28;20525;-53
2021/09/19 06:08:05;;;;;;;11.53;7.30;;;14.00;99.90;;;;;;5043395;28;20448;-52
2021/09/19 06:10:32;;;;;;;8.50;7.10;;;14.30;99.90;;;;;;5032660;28;20510;-52
2021/09/19 06:12:59;;;;;;;8.07;6.47;;;14.50;99.90;;;;;;5030917;28;20481;-52
2021/09/19 06:15:30;;;;;;;7.73;6.33;;;14.80;99.90;;;;;;5032874;28;20474;-53
2021/09/19 06:17:57;;;;;;;7.67;6.00;;;15.30;99.90;;;;;;5031955;28;20511;-52
2021/09/19 06:20:25;;;;;;;6.07;5.40;;;15.90;99.90;;;;;;5038663;28;20451;-53
2021/09/19 06:22:52;;;;;;;10.38;6.20;;;16.60;99.90;;;;;;5035128;28;20449;-53
2021/09/19 06:25:23;;;;;;;5.80;5.20;;;17.00;99.90;;;;;;5032213;28;20700;-52
2021/09/19 06:27:50;;;;;;;6.43;5.70;;;17.40;99.90;;;;;;5037399;28;20444;-53
2021/09/19 06:30:23;;;;;;;5.60;5.00;;;18.00;99.90;;;;;;5035826;28;20461;-52
2021/09/19 06:32:52;;;;;;;5.87;5.27;;;18.20;99.90;;;;;;5034519;28;21022;-52
2021/09/19 06:35:22;;;;;;;8.60;5.87;;;18.50;99.90;;;;;;5037872;28;20487;-52
2021/09/19 06:37:49;;;;;;;5.00;4.60;;;18.30;99.90;;;;;;5036388;28;20531;-52
2021/09/19 06:40:17;;;;;;;6.00;5.00;;;18.20;99.90;;;;;;5032456;28;20461;-52
2021/09/19 06:42:44;;;;;;;6.60;5.13;;;18.30;99.90;;;;;;5039042;28;20466;-53
2021/09/19 06:45:12;;;;;;;6.30;5.70;;;18.10;99.90;;;;;;4994916;28;1396186;-52
2021/09/19 06:47:40;;;;;;;5.93;5.33;;;18.10;99.90;;;;;;5041794;28;20202;-52
2021/09/19 06:50:10;;;;;;;5.83;5.33;;;17.90;99.90;;;;;;5042358;28;20465;-52
2021/09/19 06:52:37;;;;;;;8.67;5.80;;;17.20;99.90;;;;;;5051688;28;20488;-52
2021/09/19 06:55:05;;;;;;;5.80;5.20;;;16.80;99.90;;;;;;5043911;28;21067;-53
2021/09/19 06:57:32;;;;;;;7.90;5.57;;;16.50;99.90;;;;;;5038278;28;20464;-52
2021/09/19 06:59:59;;;;;;;7.63;5.50;;;16.30;99.90;;;;;;5065171;22;20545;-59
2021/09/19 07:02:27;;;;;;;5.93;5.33;;;16.30;99.90;;;;;;5053325;28;22343;-59
2021/09/19 07:04:53;;;;;;;5.73;5.23;;;16.30;99.90;;;;;;5045793;28;21022;-59
2021/09/19 07:07:22;;;;;;;5.80;5.27;;;16.40;99.90;;;;;;5048629;28;21018;-59
2021/09/19 07:09:49;;;;;;;5.20;4.70;;;16.40;99.90;;;;;;5045914;28;21084;-59
2021/09/19 07:12:16;;;;;;;8.00;7.03;;;16.50;99.90;;;;;;5044147;28;20544;-60
2021/09/19 07:14:43;;;;;;;12.03;8.67;;;16.50;99.90;;;;;;5043132;28;20464;-58
2021/09/19 07:17:10;;;;;;;12.47;9.17;;;16.00;99.90;;;;;;5044661;28;20529;-59
2021/09/19 07:19:37;;;;;;;13.47;9.20;;;15.70;99.90;;;;;;5044943;28;20480;-58
2021/09/19 07:22:04;;;;;;;15.40;11.00;;;15.50;99.90;;;;;;5044969;28;20533;-58
2021/09/19 07:24:32;;;;;;;15.83;10.50;;;15.10;99.90;;;;;;5044112;28;20471;-58
2021/09/19 07:27:03;;;;;;;15.80;11.60;;;15.20;99.90;;;;;;5044615;28;20467;-58
2021/09/19 07:29:31;;;;;;;15.90;12.23;;;15.00;99.90;;;;;;5047498;28;20486;-58
2021/09/19 07:32:01;;;;;;;15.73;11.20;;;14.70;99.90;;;;;;5044165;28;20512;-58
2021/09/19 07:34:29;;;;;;;14.90;11.07;;;14.70;99.90;;;;;;5040630;28;20476;-58
2021/09/19 07:36:56;;;;;;;14.83;10.50;;;14.70;99.90;;;;;;5045515;28;20460;-58
2021/09/19 07:39:24;;;;;;;16.50;11.77;;;14.70;99.90;;;;;;5044757;28;20563;-58
2021/09/19 07:41:54;;;;;;;16.07;10.33;;;14.80;99.90;;;;;;5044627;28;21023;-59
2021/09/19 07:44:21;;;;;;;13.83;10.37;;;14.80;99.90;;;;;;5044672;28;20636;-59
2021/09/19 07:46:50;;;;;;;15.37;10.50;;;15.20;99.90;;;;;;5044250;28;20543;-58
2021/09/19 07:49:18;;;;;;;15.57;10.00;;;15.30;99.90;;;;;;5044832;28;21000;-58
2021/09/19 07:51:46;;;;;;;14.90;10.50;;;15.40;99.90;;;;;;5044698;28;20459;-59
2021/09/19 07:54:15;;;;;;;15.90;11.27;;;15.50;99.90;;;;;;5046129;28;20487;-58
2021/09/19 07:56:42;;;;;;;15.60;10.87;;;15.60;99.90;;;;;;5044447;28;20492;-59
2021/09/19 07:59:10;;;;;;;20.80;12.77;;;15.50;99.90;;;;;;5044202;28;20495;-59
2021/09/19 08:01:37;;;;;;;17.30;12.13;;;15.50;99.90;;;;;;5044133;28;21022;-59
2021/09/19 08:04:05;;;;;;;19.33;13.50;;;15.40;99.90;;;;;;5046255;28;20513;-59
2021/09/19 08:06:32;;;;;;;20.90;13.40;;;14.70;99.90;;;;;;5043304;28;20464;-58
2021/09/19 08:08:59;;;;;;;19.40;13.47;;;14.50;99.90;;;;;;5045936;28;20541;-59
2021/09/19 08:11:28;;;;;;;20.20;14.33;;;14.30;99.90;;;;;;5039987;28;20469;-58
2021/09/19 08:13:57;;;;;;;21.37;14.20;;;14.30;99.90;;;;;;5042200;28;20483;-59
2021/09/19 08:16:25;;;;;;;20.57;13.73;;;14.20;99.90;;;;;;5043333;28;20463;-58
2021/09/19 08:18:52;;;;;;;23.53;13.80;;;14.20;99.90;;;;;;5047756;28;20472;-59
2021/09/19 08:21:19;;;;;;;21.47;13.03;;;14.40;99.90;;;;;;5044103;28;20463;-59
2021/09/19 08:23:46;;;;;;;18.83;13.13;;;14.40;99.90;;;;;;5043489;28;20537;-61
2021/09/19 08:26:13;;;;;;;20.30;12.23;;;14.50;99.90;;;;;;5042695;28;20459;-59
2021/09/19 08:28:40;;;;;;;18.67;13.20;;;14.70;99.90;;;;;;5051939;28;20471;-59
2021/09/19 08:31:07;;;;;;;17.73;11.80;;;14.90;99.90;;;;;;5046116;28;20510;-60
2021/09/19 08:33:35;;;;;;;19.47;13.07;;;14.90;99.90;;;;;;5044531;28;20479;-59
2021/09/19 08:36:03;;;;;;;17.43;12.33;;;14.90;99.90;;;;;;5042597;28;20472;-61
2021/09/19 08:38:30;;;;;;;17.97;12.23;;;14.80;99.90;;;;;;5044009;28;20517;-59
2021/09/19 08:40:57;;;;;;;19.23;12.10;;;14.90;99.90;;;;;;5044646;28;20495;-61
2021/09/19 08:43:24;;;;;;;14.77;10.80;;;14.90;99.90;;;;;;5046266;28;20525;-59
2021/09/19 08:45:52;;;;;;;17.30;11.27;;;15.00;99.90;;;;;;5043402;28;20463;-59
2021/09/19 08:48:21;;;;;;;14.63;10.57;;;15.10;99.90;;;;;;5044155;28;20467;-59
2021/09/19 08:50:51;;;;;;;16.60;10.83;;;15.10;99.90;;;;;;5042652;28;20484;-60
2021/09/19 08:53:19;;;;;;;15.50;11.73;;;15.20;99.90;;;;;;5043492;28;20483;-60
2021/09/19 08:55:46;;;;;;;14.17;10.67;;;15.10;99.90;;;;;;5042101;28;20514;-58
2021/09/19 08:58:13;;;;;;;16.17;11.50;;;15.10;99.90;;;;;;5044198;28;20463;-58
2021/09/19 09:00:44;;;;;;;13.97;10.60;;;14.80;99.90;;;;;;5043031;28;20553;-59
2021/09/19 09:03:12;;;;;;;18.67;13.20;;;14.90;99.90;;;;;;5042584;28;20837;-59
2021/09/19 09:05:41;;;;;;;21.10;12.87;;;14.90;99.90;;;;;;5043716;28;20842;-59
2021/09/19 09:08:11;;;;;;;17.53;12.30;;;14.80;99.90;;;;;;5044264;28;20969;-58
2021/09/19 09:10:41;;;;;;;17.70;13.00;;;14.90;99.90;;;;;;5045663;28;20483;-58
2021/09/19 09:13:10;;;;;;;20.20;12.90;;;14.90;99.90;;;;;;5051862;28;20479;-59
2021/09/19 09:15:40;;;;;;;19.80;15.03;;;14.90;99.90;;;;;;5053794;28;20487;-58
2021/09/19 09:18:08;;;;;;;19.83;13.70;;;15.00;99.90;;;;;;5047087;28;20459;-58
2021/09/19 09:20:54;;;;;;;21.37;14.00;;;15.00;99.90;;;;;;5047628;28;20556;-58
2021/09/19 09:23:26;;;;;;;20.53;13.10;;;14.80;99.90;;;;;;5048232;28;20462;-58
2021/09/19 09:26:16;;;;;;;22.40;13.77;;;14.80;99.90;;;;;;5051434;28;20517;-58
2021/09/19 09:28:46;;;;;;;21.67;14.10;;;14.70;99.90;;;;;;5052119;28;20447;-58
2021/09/19 09:31:19;;;;;;;20.93;14.13;;;14.60;99.90;;;;;;5051712;28;20937;-58
2021/09/19 09:33:59;;;;;;;20.63;13.13;;;14.60;99.90;;;;;;5051575;28;20487;-58
2021/09/19 09:36:39;;;;;;;20.87;13.43;;;14.70;99.90;;;;;;5044468;28;20456;-59
2021/09/19 09:39:32;;;;;;;22.37;14.60;;;14.60;99.90;;;;;;5048402;28;20468;-59
2021/09/19 09:42:03;;;;;;;20.03;14.40;;;14.60;99.90;;;;;;5031881;28;20530;-58
2021/09/19 09:44:37;;;;;;;22.67;13.97;;;14.60;99.90;;;;;;5046543;28;20473;-58
2021/09/19 09:47:06;;;;;;;20.63;13.60;;;14.60;99.90;;;;;;5051586;28;20496;-58
2021/09/19 09:49:45;;;;;;;24.70;14.20;;;14.70;99.90;;;;;;5041022;28;20480;-58
2021/09/19 09:52:14;;;;;;;21.47;13.47;;;14.60;99.90;;;;;;5048415;28;20464;-58
2021/09/19 09:54:45;;;;;;;19.20;13.93;;;14.70;99.90;;;;;;5047550;28;20483;-59
2021/09/19 09:57:13;;;;;;;18.03;13.67;;;14.70;99.90;;;;;;5031481;28;20440;-58
2021/09/19 09:59:44;;;;;;;20.77;14.30;;;14.80;99.90;;;;;;5047679;28;20495;-57
2021/09/19 10:02:13;;;;;;;20.83;15.13;;;14.70;99.90;;;;;;5048928;28;20991;-58
2021/09/19 10:04:40;;;;;;;20.60;13.77;;;14.70;99.90;;;;;;5047717;28;20444;-59
2021/09/19 10:07:08;;;;;;;18.87;13.27;;;14.80;99.90;;;;;;5050567;28;20543;-59
2021/09/19 10:09:35;;;;;;;18.50;12.50;;;14.90;99.90;;;;;;5049367;28;20484;-58
2021/09/19 10:12:06;;;;;;;18.90;13.30;;;15.00;99.90;;;;;;5049325;28;20459;-59
2021/09/19 10:14:33;;;;;;;17.33;13.17;;;15.10;99.90;;;;;;5049452;28;20483;-58
2021/09/19 10:17:00;;;;;;;17.70;12.80;;;15.10;99.90;;;;;;5047767;28;20521;-58
2021/09/19 10:19:27;;;;;;;18.23;13.63;;;15.00;99.90;;;;;;5047666;28;20541;-58
2021/09/19 10:21:55;;;;;;;18.03;13.00;;;15.00;99.90;;;;;;5050037;28;20460;-58
2021/09/19 10:24:23;;;;;;;17.77;12.63;;;15.20;99.90;;;;;;5050276;28;20506;-58
2021/09/19 10:26:56;;;;;;;16.77;12.87;;;15.20;99.90;;;;;;5048306;28;20484;-58
2021/09/19 10:29:28;;;;;;;15.83;11.57;;;15.10;99.90;;;;;;5051606;28;20479;-58
2021/09/19 10:31:57;;;;;;;19.23;12.27;;;14.90;99.90;;;;;;5054626;28;20524;-58
2021/09/19 10:34:28;;;;;;;18.27;12.47;;;14.90;99.90;;;;;;5055242;28;20483;-58
2021/09/19 10:36:56;;;;;;;15.63;12.77;;;15.00;99.90;;;;;;5049590;28;20456;-58
2021/09/19 10:39:30;;;;;;;16.47;11.23;;;15.10;99.90;;;;;;5055179;28;20517;-57
2021/09/19 10:42:17;;;;;;;17.27;11.80;;;15.30;99.90;;;;;;5050998;28;20508;-59
2021/09/19 10:45:16;;;;;;;14.30;9.93;;;15.30;99.90;;;;;;5055202;28;20443;-59
2021/09/19 10:47:49;;;;;;;11.83;9.47;;;15.40;99.90;;;;;;5042492;28;20460;-58
2021/09/19 10:50:39;;;;;;;14.30;10.53;;;15.60;99.90;;;;;;5050439;28;20489;-58
2021/09/19 10:53:19;;;;;;;13.60;9.80;;;15.60;99.90;;;;;;5043950;28;21139;-58
2021/09/19 10:55:52;;;;;;;12.87;10.07;;;15.40;99.90;;;;;;5048595;28;20968;-59
2021/09/19 10:58:25;;;;;;;13.97;10.97;;;15.50;99.90;;;;;;5053971;28;20463;-58
2021/09/19 11:01:14;;;;;;;14.37;10.80;;;15.50;99.90;;;;;;5052054;28;21066;-58
2021/09/19 11:03:43;;;;;;;20.80;10.77;;;15.50;99.90;;;;;;5051008;28;21028;-58
2021/09/19 11:06:24;;;;;;;12.50;9.87;;;15.50;99.90;;;;;;5053312;28;20440;-58
2021/09/19 11:08:51;;;;;;;13.70;9.77;;;15.60;99.90;;;;;;5048854;28;20455;-58
2021/09/19 11:11:29;;;;;;;13.97;10.83;;;15.50;99.90;;;;;;5052560;28;20521;-58
2021/09/19 11:14:02;;;;;;;13.73;10.67;;;15.40;99.90;;;;;;5034832;28;20486;-58
2021/09/19 11:16:41;;;;;;;14.40;10.43;;;15.40;99.90;;;;;;5044810;28;20452;-59
2021/09/19 11:19:12;;;;;;;15.10;10.90;;;15.50;99.90;;;;;;5034876;28;20468;-58
2021/09/19 11:21:48;;;;;;;15.40;11.43;;;15.50;99.90;;;;;;5039398;28;20532;-58
2021/09/19 11:24:19;;;;;;;15.00;11.67;;;15.60;99.90;;;;;;5053896;28;20439;-59
2021/09/19 11:26:49;;;;;;;15.33;11.63;;;15.60;99.90;;;;;;5053965;28;20463;-58
2021/09/19 11:29:17;;;;;;;14.80;10.83;;;15.50;99.90;;;;;;5053395;28;20537;-58
2021/09/19 11:31:48;;;;;;;14.47;11.13;;;15.40;99.90;;;;;;5046012;28;20452;-58
2021/09/19 11:34:17;;;;;;;14.23;9.57;;;15.40;99.90;;;;;;5052062;28;21006;-59
2021/09/19 11:36:46;;;;;;;15.00;10.80;;;15.40;99.90;;;;;;5051385;28;21104;-59
2021/09/19 11:39:14;;;;;;;17.07;11.50;;;15.40;99.90;;;;;;5050668;28;20483;-58
2021/09/19 11:41:42;;;;;;;13.17;10.40;;;15.40;99.90;;;;;;5050442;28;20436;-60
2021/09/19 11:44:12;;;;;;;13.97;10.17;;;15.50;99.90;;;;;;5051312;28;21115;-58
2021/09/19 11:46:43;;;;;;;12.80;10.00;;;15.40;99.90;;;;;;5053713;28;20462;-60
2021/09/19 11:49:11;;;;;;;15.60;9.90;;;15.40;99.90;;;;;;5053345;28;20481;-58
2021/09/19 11:51:41;;;;;;;11.97;9.60;;;15.40;99.90;;;;;;5053089;28;20505;-58
2021/09/19 11:54:08;;;;;;;12.03;9.63;;;15.30;99.90;;;;;;5049628;28;20482;-59
2021/09/19 11:56:36;;;;;;;13.93;11.43;;;15.30;99.90;;;;;;5053362;28;20443;-58
2021/09/19 11:59:04;;;;;;;13.70;10.17;;;15.30;99.90;;;;;;5053477;28;20832;-59
2021/09/19 12:01:31;;;;;;;15.20;11.17;;;15.30;99.90;;;;;;5050682;28;20458;-59
2021/09/19 12:04:06;;;;;;;15.60;10.80;;;15.20;99.90;;;;;;5052992;28;20501;-58
2021/09/19 12:06:34;;;;;;;14.10;9.80;;;15.10;99.90;;;;;;5047816;28;20874;-58
2021/09/19 12:09:02;;;;;;;14.30;9.90;;;15.10;99.90;;;;;;5052031;28;20456;-59
2021/09/19 12:11:39;;;;;;;12.57;8.83;;;15.10;99.90;;;;;;5052303;28;20517;-59
2021/09/19 12:14:13;;;;;;;8.00;6.80;;;15.10;99.90;;;;;;5053146;28;20471;-59
2021/09/19 12:16:40;;;;;;;7.87;6.37;;;15.00;99.90;;;;;;5049242;28;20443;-59
2021/09/19 12:19:19;;;;;;;7.30;5.87;;;14.90;99.90;;;;;;5052612;28;20977;-59
2021/09/19 12:21:56;;;;;;;7.03;5.73;;;14.70;99.90;;;;;;5052365;28;20470;-59
2021/09/19 12:24:24;;;;;;;5.53;4.77;;;14.70;99.90;;;;;;5052629;28;20516;-59
2021/09/19 12:26:51;;;;;;;5.97;5.00;;;14.70;99.90;;;;;;5052845;28;20447;-59
2021/09/19 12:29:19;;;;;;;5.10;3.90;;;14.70;99.90;;;;;;5052913;28;20521;-59
2021/09/19 12:31:48;;;;;;;4.10;3.33;;;14.60;99.90;;;;;;5052601;28;20466;-58
2021/09/19 12:34:17;;;;;;;4.03;3.63;;;14.50;99.90;;;;;;5056561;28;20475;-59
2021/09/19 12:36:45;;;;;;;3.37;2.90;;;14.50;99.90;;;;;;5053801;28;20451;-59
2021/09/19 12:39:19;;;;;;;2.57;2.33;;;14.50;99.90;;;;;;5059932;28;20483;-59
2021/09/19 12:41:48;;;;;;;4.00;3.23;;;14.40;99.90;;;;;;5057256;28;20518;-59
2021/09/19 12:44:16;;;;;;;4.63;2.70;;;14.30;99.90;;;;;;5053997;28;20477;-58